Time;durP1;ratioP1;P1;durP2;ratioP2;P2;SDS_P1;SDS_P2;PMS_P1;PMS_P2;Temp;Humidity;BMP_temperature;BMP_pressure;BME280_temperature;BME280_humidity;BME280_pressure;Samples;Min_cycle;Max_cycle;Signal;HPM_P1;HPM_P2
2021/05/25 00:00:55;;;;;;;2.50;0.80;;;;;;;8.41;79.21;96736.97;4964936;28;20114;-61
2021/05/25 00:03:22;;;;;;;4.10;1.10;;;;;;;8.53;78.49;96740.78;4966102;28;20038;-60
2021/05/25 00:05:47;;;;;;;5.60;1.85;;;;;;;8.51;78.38;96732.94;4975856;28;20197;-60
2021/05/25 00:08:12;;;;;;;2.63;0.80;;;;;;;8.57;78.51;96728.00;4976036;28;20559;-61
2021/05/25 00:10:38;;;;;;;4.22;0.90;;;;;;;8.55;78.28;96735.75;4976102;28;20065;-61
2021/05/25 00:13:05;;;;;;;3.40;0.75;;;;;;;8.52;78.01;96736.50;4981147;28;20109;-61
2021/05/25 00:15:35;;;;;;;10.43;1.48;;;;;;;8.48;77.93;96738.31;4972538;28;20097;-60
2021/05/25 00:18:03;;;;;;;6.45;0.98;;;;;;;8.39;78.05;96735.72;4973997;28;20042;-61
2021/05/25 00:20:28;;;;;;;4.22;1.25;;;;;;;8.40;79.41;96731.88;4980687;28;20495;-61
2021/05/25 00:22:54;;;;;;;1.70;0.70;;;;;;;8.23;80.04;96741.97;4981364;28;20160;-59
2021/05/25 00:25:21;;;;;;;4.30;1.00;;;;;;;8.33;80.38;96743.38;4977758;28;20047;-60
2021/05/25 00:27:48;;;;;;;4.80;0.90;;;;;;;8.42;79.12;96741.31;4980285;28;20053;-60
2021/05/25 00:30:16;;;;;;;3.38;1.20;;;;;;;8.43;79.76;96747.56;4975925;28;20039;-60
2021/05/25 00:32:42;;;;;;;2.33;1.10;;;;;;;8.22;80.62;96750.50;4978694;28;20499;-60
2021/05/25 00:35:09;;;;;;;5.63;0.90;;;;;;;8.18;81.20;96738.72;4971748;28;20133;-59
2021/05/25 00:37:34;;;;;;;3.40;0.90;;;;;;;8.16;81.15;96749.19;4973976;28;20046;-60
2021/05/25 00:40:00;;;;;;;4.60;1.23;;;;;;;8.20;81.61;96759.03;4971036;28;20043;-58
2021/05/25 00:42:25;;;;;;;2.78;0.88;;;;;;;8.16;81.28;96749.19;4960918;28;20039;-61
2021/05/25 00:44:52;;;;;;;3.15;0.85;;;;;;;8.15;82.24;96751.09;4977918;28;20046;-60
2021/05/25 00:47:28;;;;;;;4.75;1.10;;;;;;;8.16;82.12;96758.16;4976674;28;20044;-61
2021/05/25 00:49:54;;;;;;;3.08;0.82;;;;;;;8.08;81.88;96759.09;4958245;28;20105;-62
2021/05/25 00:52:20;;;;;;;2.90;1.00;;;;;;;7.96;82.75;96749.06;4956852;28;20392;-60
2021/05/25 00:54:45;;;;;;;3.17;0.82;;;;;;;8.07;83.33;96759.44;4960877;28;20061;-61
2021/05/25 00:57:11;;;;;;;2.92;1.10;;;;;;;7.99;83.57;96759.25;4956851;28;20043;-59
2021/05/25 00:59:38;;;;;;;2.67;1.00;;;;;;;7.88;83.70;96771.00;4962247;28;20133;-59
2021/05/25 01:02:03;;;;;;;1.42;0.95;;;;;;;7.85;84.23;96765.13;4977080;28;20046;-61
2021/05/25 01:04:30;;;;;;;2.65;0.88;;;;;;;7.87;83.64;96762.03;4980874;28;20046;-60
2021/05/25 01:06:56;;;;;;;3.83;0.88;;;;;;;7.85;84.30;96764.34;4982093;28;20050;-61
2021/05/25 01:09:21;;;;;;;1.77;1.00;;;;;;;7.94;84.49;96766.88;4978918;28;20501;-61
2021/05/25 01:11:47;;;;;;;3.95;0.88;;;;;;;7.84;84.35;96766.25;4981232;28;20109;-60
2021/05/25 01:14:13;;;;;;;3.47;1.10;;;;;;;7.84;83.87;96766.25;4974893;28;20125;-61
2021/05/25 01:16:38;;;;;;;5.00;1.85;;;;;;;7.69;85.42;96766.19;4974245;28;20133;-57
2021/05/25 01:19:04;;;;;;;3.30;1.08;;;;;;;7.65;84.90;96764.16;4982622;28;20464;-61
2021/05/25 01:21:30;;;;;;;2.17;1.15;;;;;;;7.68;84.58;96768.13;4994750;28;20054;-61
2021/05/25 01:23:55;;;;;;;3.35;1.10;;;;;;;7.73;85.14;96767.09;4984552;28;20403;-59
2021/05/25 01:26:21;;;;;;;2.63;0.70;;;;;;;7.74;84.71;96766.75;4980934;28;20112;-61
2021/05/25 01:28:48;;;;;;;4.32;1.08;;;;;;;7.77;85.31;96770.72;4985586;28;20491;-61
2021/05/25 01:31:14;;;;;;;2.75;1.00;;;;;;;7.79;85.20;96771.94;4978263;28;20403;-61
2021/05/25 01:33:40;;;;;;;5.20;1.10;;;;;;;7.87;84.50;96772.97;4981394;28;20042;-59
2021/05/25 01:36:11;;;;;;;3.10;1.00;;;;;;;7.84;85.41;96782.59;4981017;28;20061;-60
2021/05/25 01:38:37;;;;;;;1.63;0.80;;;;;;;7.79;85.42;96782.84;4983927;28;20042;-60
2021/05/25 01:41:04;;;;;;;4.18;0.98;;;;;;;7.75;85.68;96789.34;4983483;28;20127;-61
2021/05/25 01:43:30;;;;;;;1.42;0.90;;;;;;;7.90;85.57;96802.25;4984328;28;20455;-60
2021/05/25 01:45:56;;;;;;;3.33;0.93;;;;;;;7.80;85.33;96800.81;4981095;28;20125;-61
2021/05/25 01:48:21;;;;;;;2.63;1.00;;;;;;;7.70;85.19;96795.84;4972485;28;20140;-61
2021/05/25 01:50:47;;;;;;;3.63;1.13;;;;;;;7.62;86.35;96796.78;4980795;28;20104;-58
2021/05/25 01:53:16;;;;;;;4.95;0.75;;;;;;;7.60;86.74;96808.03;4976448;28;20057;-59
2021/05/25 01:55:41;;;;;;;2.25;1.25;;;;;;;7.61;87.17;96809.59;4979261;28;20062;-60
2021/05/25 01:58:43;;;;;;;1.75;0.70;;;;;;;7.79;86.75;96815.56;4975976;28;20046;-60
2021/05/25 02:01:11;;;;;;;3.38;1.00;;;;;;;7.83;86.72;96800.13;4898785;29;20122;-60
2021/05/25 02:03:38;;;;;;;4.53;1.50;;;;;;;7.91;86.10;96806.56;4965859;28;20093;-60
2021/05/25 02:06:05;;;;;;;2.60;0.95;;;;;;;7.97;85.80;96812.56;4969650;28;20093;-61
2021/05/25 02:08:31;;;;;;;4.40;0.90;;;;;;;7.96;86.80;96813.69;4976986;28;20038;-60
2021/05/25 02:10:59;;;;;;;5.65;1.02;;;;;;;8.08;86.60;96813.66;4978517;28;20484;-60
2021/05/25 02:13:30;;;;;;;7.30;1.25;;;;;;;8.07;84.97;96820.25;4973835;28;20157;-60
2021/05/25 02:16:05;;;;;;;2.22;0.90;;;;;;;8.13;85.31;96816.13;4981434;28;20570;-60
2021/05/25 02:18:33;;;;;;;3.10;1.10;;;;;;;8.13;84.10;96807.16;4978230;28;20047;-59
2021/05/25 02:21:02;;;;;;;3.35;1.17;;;;;;;8.15;82.55;96822.03;4979566;28;20142;-59
2021/05/25 02:23:28;;;;;;;3.92;1.00;;;;;;;8.52;82.76;96827.34;4978397;28;20053;-60
2021/05/25 02:25:54;;;;;;;6.35;0.80;;;;;;;8.41;81.94;96837.19;4978197;28;20042;-59
2021/05/25 02:28:20;;;;;;;3.50;0.85;;;;;;;8.33;80.63;96849.03;4975894;28;20085;-59
2021/05/25 02:30:46;;;;;;;1.27;0.70;;;;;;;8.10;80.12;96844.09;4976042;28;20047;-60
2021/05/25 02:33:15;;;;;;;5.95;1.00;;;;;;;7.59;79.29;96855.47;4984438;28;20400;-61
2021/05/25 02:35:42;;;;;;;6.85;1.60;;;;;;;7.31;78.53;96849.97;4987171;28;20528;-60
2021/05/25 02:38:09;;;;;;;6.07;1.00;;;;;;;7.12;80.54;96861.44;4978954;28;20043;-61
2021/05/25 02:40:36;;;;;;;4.50;1.10;;;;;;;6.96;81.50;96842.22;4964825;28;20071;-61
2021/05/25 02:43:02;;;;;;;3.65;1.10;;;;;;;6.76;82.66;96860.25;4976176;28;20069;-60
2021/05/25 02:45:28;;;;;;;25.15;8.88;;;;;;;6.74;82.47;96867.16;4970438;28;20081;-60
2021/05/25 02:47:54;;;;;;;5.05;1.20;;;;;;;6.77;82.23;96861.84;4981425;28;20122;-61
2021/05/25 02:50:20;;;;;;;6.97;1.23;;;;;;;6.69;82.33;96868.97;4971851;28;20111;-61
2021/05/25 02:52:48;;;;;;;3.35;1.13;;;;;;;6.67;83.17;96868.50;4983081;28;20050;-61
2021/05/25 02:55:17;;;;;;;5.78;1.20;;;;;;;6.72;83.09;96883.84;4976599;28;20068;-60
2021/05/25 02:57:43;;;;;;;4.65;1.17;;;;;;;6.75;82.95;96885.06;4988768;28;20070;-61
2021/05/25 03:00:12;;;;;;;7.72;1.67;;;;;;;6.76;83.53;96895.63;4974912;28;20077;-61
2021/05/25 03:02:38;;;;;;;4.10;1.08;;;;;;;6.76;83.26;96898.34;4978500;28;20047;-60
2021/05/25 03:05:06;;;;;;;4.72;1.10;;;;;;;6.94;83.16;96893.50;4978505;28;20049;-61
2021/05/25 03:07:31;;;;;;;6.65;1.27;;;;;;;6.87;81.73;96906.88;4977280;28;20483;-59
2021/05/25 03:09:57;;;;;;;6.85;1.35;;;;;;;6.87;81.61;96896.78;4975713;28;20105;-59
2021/05/25 03:12:22;;;;;;;6.15;1.08;;;;;;;6.87;81.49;96907.69;4976465;28;20285;-60
2021/05/25 03:14:48;;;;;;;5.85;1.27;;;;;;;6.95;81.36;96894.31;4981414;28;20064;-59
2021/05/25 03:17:13;;;;;;;6.15;1.13;;;;;;;6.94;80.68;96898.19;4959713;28;20396;-58
2021/05/25 03:19:38;;;;;;;6.10;1.20;;;;;;;6.97;79.88;96902.94;4980967;28;20042;-60
2021/05/25 03:22:04;;;;;;;3.00;1.00;;;;;;;7.03;79.60;96902.38;4978374;28;20038;-60
2021/05/25 03:24:30;;;;;;;4.70;1.20;;;;;;;7.01;80.38;96910.09;4982945;28;20038;-59
2021/05/25 03:26:55;;;;;;;11.48;1.40;;;;;;;7.16;79.86;96896.94;4980912;28;20044;-58
2021/05/25 03:29:21;;;;;;;4.80;1.75;;;;;;;7.20;79.18;96901.41;4973076;28;20136;-61
2021/05/25 03:31:47;;;;;;;4.95;1.02;;;;;;;7.13;78.30;96895.72;4972734;28;20246;-58
2021/05/25 03:34:12;;;;;;;9.57;1.33;;;;;;;7.11;77.96;96903.41;4973380;28;20527;-58
2021/05/25 03:36:38;;;;;;;6.97;2.75;;;;;;;7.18;78.26;96894.69;4980709;28;20046;-57
2021/05/25 03:39:05;;;;;;;2.97;1.55;;;;;;;7.20;78.30;96900.56;4981757;28;20128;-61
2021/05/25 03:41:31;;;;;;;11.27;1.20;;;;;;;7.13;78.02;96905.78;4976978;28;20105;-59
2021/05/25 03:43:58;;;;;;;4.05;1.17;;;;;;;7.03;77.62;96899.66;4978815;28;20093;-61
2021/05/25 03:46:24;;;;;;;6.88;2.17;;;;;;;7.01;78.40;96906.59;4981492;28;20042;-61
2021/05/25 03:48:49;;;;;;;8.70;1.27;;;;;;;7.03;79.17;96902.38;4986345;28;20125;-59
2021/05/25 03:51:15;;;;;;;4.95;1.30;;;;;;;7.08;78.39;96902.16;4977748;28;20035;-57
2021/05/25 03:53:40;;;;;;;9.35;1.30;;;;;;;7.06;78.43;96904.44;4980619;28;20078;-60
2021/05/25 03:58:50;;;;;;;6.18;1.10;;;;;;;6.98;78.19;96909.97;4980004;28;20423;-59
2021/05/25 04:01:19;;;;;;;6.53;1.25;;;;;;;7.07;78.64;96911.44;4984609;28;20543;-61
2021/05/25 04:03:47;;;;;;;10.32;1.08;;;;;;;7.08;79.54;96909.53;4994276;28;20061;-61
2021/05/25 04:06:13;;;;;;;9.20;1.35;;;;;;;7.12;78.15;96917.84;4977093;28;20054;-59
2021/05/25 04:08:39;;;;;;;9.10;1.10;;;;;;;7.09;78.83;96922.00;4975969;28;20403;-60
2021/05/25 04:11:04;;;;;;;4.63;0.98;;;;;;;7.09;78.75;96927.47;4974061;28;20035;-61
2021/05/25 04:13:30;;;;;;;3.42;1.13;;;;;;;7.11;79.12;96927.13;4977911;28;20523;-61
2021/05/25 04:15:55;;;;;;;4.88;1.13;;;;;;;7.24;80.26;96923.31;4964885;28;20055;-59
2021/05/25 04:18:21;;;;;;;6.13;1.10;;;;;;;7.22;78.19;96928.28;4969518;28;20653;-60
2021/05/25 04:20:47;;;;;;;7.38;1.55;;;;;;;7.34;78.28;96932.94;4973343;28;20039;-60
2021/05/25 04:23:13;;;;;;;2.95;1.10;;;;;;;7.37;79.07;96929.56;4976122;28;20038;-61
2021/05/25 04:25:38;;;;;;;5.95;1.15;;;;;;;7.40;79.46;96926.94;4982214;28;20061;-60
2021/05/25 04:28:04;;;;;;;4.97;1.38;;;;;;;7.41;80.26;96931.25;4976223;28;20049;-59
2021/05/25 04:30:30;;;;;;;4.20;1.00;;;;;;;7.56;79.23;96935.25;4980594;28;20042;-60
2021/05/25 04:32:55;;;;;;;4.18;1.20;;;;;;;7.63;78.16;96931.91;4972672;28;20076;-61
2021/05/25 04:35:22;;;;;;;8.27;1.10;;;;;;;7.71;78.80;96944.66;4985943;28;20676;-61
2021/05/25 04:37:47;;;;;;;3.28;1.02;;;;;;;7.94;76.92;96930.53;4987823;28;20042;-60
2021/05/25 04:40:14;;;;;;;9.27;3.40;;;;;;;8.01;77.94;96928.81;4977869;28;20042;-61
2021/05/25 04:42:40;;;;;;;6.88;1.45;;;;;;;7.78;78.43;96936.69;4979926;28;20054;-61
2021/05/25 04:45:07;;;;;;;6.55;2.08;;;;;;;7.69;77.14;96941.47;4974406;28;20129;-60
2021/05/25 04:47:32;;;;;;;8.48;1.25;;;;;;;7.50;78.03;96939.31;4984707;28;20042;-61
2021/05/25 04:49:57;;;;;;;4.53;0.90;;;;;;;7.58;76.41;96940.31;4983326;28;20512;-61
2021/05/25 04:52:23;;;;;;;2.47;1.00;;;;;;;7.61;77.86;96950.56;4958269;28;20129;-60
2021/05/25 04:54:48;;;;;;;2.85;0.85;;;;;;;7.74;77.51;96951.34;4970700;28;20069;-61
2021/05/25 04:57:14;;;;;;;5.15;1.10;;;;;;;8.13;74.32;96952.53;4965353;28;20035;-61
2021/05/25 04:59:39;;;;;;;3.58;0.93;;;;;;;9.56;69.26;96954.84;4975860;28;20523;-61
2021/05/25 05:02:05;;;;;;;4.78;1.10;;;;;;;10.07;66.25;96954.88;4974895;28;20567;-61
2021/05/25 05:04:30;;;;;;;4.00;1.02;;;;;;;9.83;67.92;96961.38;4981298;28;20050;-62
2021/05/25 05:06:56;;;;;;;7.82;2.08;;;;;;;8.83;70.65;96972.50;4979267;28;20045;-61
2021/05/25 05:09:21;;;;;;;4.07;1.50;;;;;;;8.60;72.29;96973.81;4985690;28;21759;-61
2021/05/25 05:11:46;;;;;;;7.07;1.20;;;;;;;8.54;71.72;96977.94;4978772;28;20073;-61
2021/05/25 05:14:12;;;;;;;5.85;1.42;;;;;;;8.46;72.21;96969.88;4972334;28;20035;-61
2021/05/25 05:16:37;;;;;;;4.28;1.55;;;;;;;8.61;72.11;96974.63;4987156;28;20074;-61
2021/05/25 05:19:03;;;;;;;3.47;0.95;;;;;;;8.70;71.49;96979.94;4977097;28;20307;-61
2021/05/25 05:21:29;;;;;;;4.95;2.05;;;;;;;8.74;70.32;96975.38;4974910;28;20042;-58
2021/05/25 05:23:54;;;;;;;4.65;0.95;;;;;;;8.76;70.18;96971.13;4986343;28;20068;-61
2021/05/25 05:26:20;;;;;;;2.70;0.80;;;;;;;8.75;70.85;96979.69;4982063;28;20042;-61
2021/05/25 05:28:46;;;;;;;3.13;1.00;;;;;;;8.84;71.28;96982.25;4981278;28;20072;-61
2021/05/25 05:31:12;;;;;;;5.20;0.82;;;;;;;8.95;68.96;96988.84;4983482;28;20042;-60
2021/05/25 05:33:37;;;;;;;6.32;1.10;;;;;;;8.97;68.72;96981.88;4987860;28;20443;-62
2021/05/25 05:36:03;;;;;;;3.85;1.02;;;;;;;8.70;68.63;96986.19;4985548;28;20082;-60
2021/05/25 05:38:28;;;;;;;8.77;1.65;;;;;;;8.65;70.18;96996.56;4986218;28;20387;-61
2021/05/25 05:41:02;;;;;;;5.72;1.20;;;;;;;8.91;71.11;96994.19;4984234;28;20082;-61
2021/05/25 05:43:28;;;;;;;3.55;1.30;;;;;;;8.59;70.22;96990.56;4991809;28;20046;-61
2021/05/25 05:45:53;;;;;;;5.78;1.52;;;;;;;8.67;71.31;96991.56;4974021;28;20407;-60
2021/05/25 05:48:18;;;;;;;6.65;1.00;;;;;;;8.68;70.85;96995.84;4975389;28;20166;-62
2021/05/25 05:50:44;;;;;;;4.47;0.80;;;;;;;8.68;71.16;96988.47;4967416;28;20484;-61
2021/05/25 05:53:09;;;;;;;7.43;1.00;;;;;;;9.13;69.04;96992.84;4973169;28;20435;-60
2021/05/25 05:55:34;;;;;;;10.15;1.10;;;;;;;9.83;66.98;97004.31;4981054;28;20046;-62
2021/05/25 05:58:00;;;;;;;5.60;0.70;;;;;;;11.07;63.13;96994.53;4982653;28;20141;-62
2021/05/25 06:00:26;;;;;;;4.68;1.50;;;;;;;11.56;61.46;96997.72;4963862;28;20043;-62
2021/05/25 06:02:51;;;;;;;5.40;1.10;;;;;;;10.90;61.47;97000.44;4978954;28;20058;-61
2021/05/25 06:05:17;;;;;;;3.55;0.60;;;;;;;10.60;62.45;97013.91;4980480;28;20039;-61
2021/05/25 06:07:42;;;;;;;5.20;0.82;;;;;;;10.25;62.68;97020.19;4987240;28;20038;-61
2021/05/25 06:10:08;;;;;;;2.33;0.77;;;;;;;9.67;65.66;97027.03;4975387;28;20039;-61
2021/05/25 06:12:34;;;;;;;5.22;1.10;;;;;;;9.27;66.95;97022.47;4979935;28;20047;-60
2021/05/25 06:15:00;;;;;;;5.85;1.02;;;;;;;9.50;66.04;97028.13;4978846;28;20077;-61
2021/05/25 06:17:25;;;;;;;5.20;1.48;;;;;;;9.23;67.38;97034.47;4970159;28;20043;-62
2021/05/25 06:19:51;;;;;;;3.38;0.93;;;;;;;9.21;67.29;97034.81;4982736;28;20046;-61
2021/05/25 06:22:21;;;;;;;5.07;1.17;;;;;;;9.08;67.43;97036.81;4974546;28;20045;-62
2021/05/25 06:24:46;;;;;;;7.47;1.67;;;;;;;8.90;66.99;97040.97;4965013;28;20045;-61
2021/05/25 06:27:12;;;;;;;3.92;1.05;;;;;;;8.98;67.65;97045.50;4972763;28;20038;-61
2021/05/25 06:29:37;;;;;;;6.95;2.40;;;;;;;8.98;66.31;97048.22;4967777;28;20047;-61
2021/05/25 06:32:03;;;;;;;6.68;1.38;;;;;;;8.76;66.71;97049.56;4964465;28;20038;-62
2021/05/25 06:34:29;;;;;;;4.10;1.15;;;;;;;8.44;68.68;97049.38;4979338;28;20047;-61
2021/05/25 06:36:55;;;;;;;8.13;1.30;;;;;;;8.53;69.15;97057.47;4982945;28;20054;-61
2021/05/25 06:39:20;;;;;;;4.72;1.10;;;;;;;8.26;68.29;97037.13;4981864;28;20053;-62
2021/05/25 06:41:46;;;;;;;5.78;1.42;;;;;;;8.15;67.85;97036.78;4982924;28;20050;-62
2021/05/25 06:44:11;;;;;;;5.43;0.82;;;;;;;8.11;66.10;97019.50;4968958;28;20047;-62
2021/05/25 06:46:37;;;;;;;3.45;0.90;;;;;;;7.98;65.70;97040.56;4968476;28;20038;-61
2021/05/25 06:49:02;;;;;;;4.78;1.00;;;;;;;8.06;65.62;97049.75;4966963;28;20055;-59
2021/05/25 06:51:28;;;;;;;4.82;0.88;;;;;;;9.09;64.46;97041.13;4968622;28;20515;-62
2021/05/25 06:53:54;;;;;;;2.15;0.90;;;;;;;9.73;62.71;97033.03;4977151;28;20125;-61
2021/05/25 06:56:20;;;;;;;1.85;0.75;;;;;;;10.56;59.30;97038.50;4975118;28;20042;-61
2021/05/25 06:58:45;;;;;;;4.43;0.90;;;;;;;10.89;57.41;97054.47;4979406;28;20463;-61
2021/05/25 07:01:10;;;;;;;4.60;1.40;;;;;;;10.02;59.35;97036.44;4973006;28;20057;-62
2021/05/25 07:03:36;;;;;;;2.20;0.85;;;;;;;10.37;58.14;97036.53;4977660;28;20038;-62
2021/05/25 07:06:01;;;;;;;3.25;0.60;;;;;;;11.09;56.49;97032.53;4981773;28;20061;-61
2021/05/25 07:08:26;;;;;;;6.70;1.35;;;;;;;12.50;53.01;97046.69;4976228;28;20046;-61
2021/05/25 07:10:52;;;;;;;2.22;0.75;;;;;;;13.67;49.45;97038.28;4984425;28;20118;-61
2021/05/25 07:13:17;;;;;;;5.30;0.90;;;;;;;13.37;49.50;97032.88;4986921;28;20048;-61
2021/05/25 07:15:43;;;;;;;2.38;0.52;;;;;;;13.61;47.88;97037.03;4984754;28;20078;-61
2021/05/25 07:18:09;;;;;;;7.65;0.90;;;;;;;13.89;47.62;97036.53;4988506;28;20158;-56
2021/05/25 07:20:34;;;;;;;2.55;0.80;;;;;;;14.37;47.27;97038.47;4984854;28;20097;-61
2021/05/25 07:23:00;;;;;;;3.97;1.08;;;;;;;13.96;49.16;97039.34;4977675;28;20483;-60
2021/05/25 07:25:28;;;;;;;21.60;10.15;;;;;;;14.10;47.74;97033.16;4979485;28;20066;-60
2021/05/25 07:27:55;;;;;;;5.50;2.20;;;;;;;15.04;47.00;97036.50;4972506;28;20054;-61
2021/05/25 07:30:21;;;;;;;4.57;0.70;;;;;;;15.09;46.00;97027.88;4976661;28;20074;-62
2021/05/25 07:32:47;;;;;;;6.22;0.90;;;;;;;13.65;48.29;97035.13;4966838;28;20039;-60
2021/05/25 07:35:14;;;;;;;4.13;0.52;;;;;;;14.62;46.68;97035.91;4977756;28;20054;-61
2021/05/25 07:37:40;;;;;;;2.80;0.80;;;;;;;14.52;46.21;97028.34;4982488;28;20483;-60
2021/05/25 07:40:07;;;;;;;1.73;0.52;;;;;;;14.10;46.56;97035.91;4975585;28;20047;-60
2021/05/25 07:42:33;;;;;;;5.68;1.00;;;;;;;15.32;43.84;97023.97;4978239;28;20526;-61
2021/05/25 07:44:59;;;;;;;2.80;0.60;;;;;;;13.77;45.83;97021.09;4982751;28;20046;-59
2021/05/25 07:47:26;;;;;;;4.45;1.10;;;;;;;13.15;47.36;97040.88;4968591;28;20101;-59
2021/05/25 07:49:52;;;;;;;3.97;0.47;;;;;;;12.48;48.90;97040.75;4979170;28;20038;-60
2021/05/25 07:52:18;;;;;;;6.03;0.80;;;;;;;12.38;50.23;97043.00;4977218;28;20045;-61
2021/05/25 07:54:44;;;;;;;3.90;0.80;;;;;;;12.36;49.96;97050.03;4982389;28;20232;-61
2021/05/25 07:57:09;;;;;;;9.73;1.02;;;;;;;11.88;51.32;97047.66;4976242;28;20046;-60
2021/05/25 07:59:37;;;;;;;8.50;1.15;;;;;;;12.01;51.34;97048.28;4980898;28;20045;-61
2021/05/25 08:02:03;;;;;;;2.75;0.63;;;;;;;12.04;51.61;97059.34;4977624;28;20141;-60
2021/05/25 08:04:28;;;;;;;9.45;0.90;;;;;;;11.95;51.88;97071.72;4975841;28;20124;-61
2021/05/25 08:06:53;;;;;;;5.85;1.10;;;;;;;12.19;52.81;97082.34;4981566;28;20043;-60
2021/05/25 08:09:19;;;;;;;5.32;0.85;;;;;;;12.51;53.98;97079.28;4972296;28;20129;-61
2021/05/25 08:11:44;;;;;;;3.88;0.90;;;;;;;13.18;51.95;97075.06;4971535;28;20551;-60
2021/05/25 08:14:10;;;;;;;16.90;5.55;;;;;;;13.53;52.22;97077.47;4974755;28;20047;-61
2021/05/25 08:16:39;;;;;;;6.03;1.77;;;;;;;13.55;51.99;97071.59;4977729;28;20053;-61
2021/05/25 08:19:12;;;;;;;5.82;1.70;;;;;;;13.78;51.71;97068.69;4971655;28;20558;-61
2021/05/25 08:21:39;;;;;;;4.65;0.98;;;;;;;13.29;51.37;97081.50;4962816;28;20054;-60
2021/05/25 08:24:07;;;;;;;2.80;0.70;;;;;;;13.27;53.33;97083.84;4957443;28;20398;-61
2021/05/25 08:26:33;;;;;;;1.90;0.50;;;;;;;14.69;49.87;97076.50;4963604;28;20431;-61
2021/05/25 08:28:59;;;;;;;3.22;1.15;;;;;;;14.23;48.83;97085.22;4967797;28;20142;-61
2021/05/25 08:31:24;;;;;;;5.68;0.80;;;;;;;14.81;47.88;97081.69;4958698;28;20118;-61
2021/05/25 08:33:50;;;;;;;3.97;0.70;;;;;;;14.97;46.95;97097.16;4972164;28;20477;-61
2021/05/25 08:36:17;;;;;;;3.90;0.55;;;;;;;14.90;45.90;97087.66;4976390;28;20050;-61
2021/05/25 08:38:43;;;;;;;10.25;0.80;;;;;;;15.32;45.32;97079.16;4981409;28;20046;-61
2021/05/25 08:41:09;;;;;;;2.50;0.50;;;;;;;15.28;44.18;97079.94;4971204;28;20419;-61
2021/05/25 08:43:34;;;;;;;4.90;0.70;;;;;;;14.35;45.26;97087.66;4983926;28;20061;-61
2021/05/25 08:46:00;;;;;;;3.33;0.82;;;;;;;14.84;45.21;97086.44;4979660;28;20046;-59
2021/05/25 08:48:26;;;;;;;2.22;0.55;;;;;;;15.30;44.55;97079.56;4963046;28;20506;-61
2021/05/25 08:51:00;;;;;;;3.33;0.70;;;;;;;14.50;45.37;97083.84;4982115;28;20533;-60
2021/05/25 08:53:29;;;;;;;5.20;0.80;;;;;;;14.61;43.94;97089.44;4989156;28;20085;-56
2021/05/25 08:55:55;;;;;;;4.00;0.68;;;;;;;14.28;43.79;97090.38;4982606;28;20061;-60
2021/05/25 08:58:23;;;;;;;3.95;1.30;;;;;;;13.64;44.70;97090.56;4964816;28;20041;-62
2021/05/25 09:00:54;;;;;;;6.90;1.23;;;;;;;13.75;44.21;97099.72;4979637;28;20043;-62
2021/05/25 09:03:20;;;;;;;4.13;0.80;;;;;;;13.62;44.71;97093.69;4965724;28;20463;-61
2021/05/25 09:05:55;;;;;;;4.55;0.90;;;;;;;13.49;44.03;97100.63;4980901;28;20038;-63
2021/05/25 09:08:21;;;;;;;5.85;0.80;;;;;;;14.02;43.97;97088.56;4976876;28;22468;-64
2021/05/25 09:10:48;;;;;;;3.47;0.85;;;;;;;14.81;44.63;97086.41;4979148;28;20451;-62
2021/05/25 09:13:18;;;;;;;2.80;0.73;;;;;;;14.90;41.67;97073.84;4966618;28;20069;-61
2021/05/25 09:15:46;;;;;;;4.93;1.13;;;;;;;14.83;42.61;97073.03;4982428;28;20054;-62
2021/05/25 09:18:15;;;;;;;5.75;0.85;;;;;;;15.02;40.97;97070.00;4988302;28;20046;-63
2021/05/25 09:21:03;;;;;;;6.22;1.00;;;;;;;14.68;42.87;97078.47;4986954;28;20042;-61
2021/05/25 09:23:31;;;;;;;3.75;0.65;;;;;;;15.20;42.36;97077.56;4979531;28;20052;-62
2021/05/25 09:26:09;;;;;;;3.35;0.82;;;;;;;14.51;42.16;97068.88;4968299;28;20431;-62
2021/05/25 09:28:51;;;;;;;1.88;1.05;;;;;;;15.10;41.82;97079.09;4979037;28;20042;-61
2021/05/25 09:31:24;;;;;;;5.68;1.00;;;;;;;14.77;42.65;97063.56;4975994;28;20038;-61
2021/05/25 09:34:09;;;;;;;1.42;0.70;;;;;;;15.26;42.69;97062.19;4981012;28;20053;-60
2021/05/25 09:37:00;;;;;;;4.47;1.02;;;;;;;14.64;42.47;97080.41;4978476;28;20076;-61
2021/05/25 09:39:35;;;;;;;1.55;0.50;;;;;;;14.86;43.36;97081.34;4963371;28;20074;-59
2021/05/25 09:42:04;;;;;;;4.22;0.95;;;;;;;13.80;48.08;97098.59;4961512;28;20043;-59
2021/05/25 09:44:30;;;;;;;5.15;0.80;;;;;;;13.57;55.73;97113.28;4971191;28;20818;-61
2021/05/25 09:47:02;;;;;;;4.35;0.68;;;;;;;13.52;58.04;97119.13;4977565;28;20188;-60
2021/05/25 09:49:33;;;;;;;4.00;0.80;;;;;;;12.43;58.13;97124.31;4972075;28;20039;-60
2021/05/25 09:52:08;;;;;;;5.20;1.08;;;;;;;11.51;63.37;97125.03;4991607;28;20047;-61
2021/05/25 09:54:35;;;;;;;5.20;0.80;;;;;;;11.60;66.48;97124.78;4979252;28;20062;-60
2021/05/25 09:57:02;;;;;;;3.90;0.80;;;;;;;12.27;66.39;97116.19;4965136;28;20051;-59
2021/05/25 09:59:29;;;;;;;4.70;0.77;;;;;;;13.16;61.33;97105.72;4964628;28;20049;-58
2021/05/25 10:01:55;;;;;;;5.00;1.13;;;;;;;13.36;60.59;97102.81;4983683;28;20038;-60
2021/05/25 10:04:20;;;;;;;5.72;1.08;;;;;;;13.75;60.44;97105.22;4957922;28;20058;-61
2021/05/25 10:06:47;;;;;;;5.95;1.23;;;;;;;14.56;58.87;97103.56;4966884;28;20074;-60
2021/05/25 10:09:13;;;;;;;3.35;0.93;;;;;;;14.52;55.89;97095.25;4963350;28;20370;-58
2021/05/25 10:11:42;;;;;;;3.35;0.68;;;;;;;14.90;52.07;97087.66;4974933;28;20038;-59
2021/05/25 10:14:09;;;;;;;2.85;0.70;;;;;;;13.93;46.49;97100.66;4978741;28;20149;-60
2021/05/25 10:16:39;;;;;;;3.47;0.90;;;;;;;14.24;49.08;97108.81;4977520;28;20872;-59
2021/05/25 10:21:36;;;;;;;5.32;0.90;;;;;;;13.65;49.80;97112.22;4983019;28;20043;-61
2021/05/25 10:24:02;;;;;;;3.92;0.60;;;;;;;14.63;50.11;97109.16;4983578;28;20446;-60
2021/05/25 10:26:29;;;;;;;3.53;0.90;;;;;;;15.33;48.89;97114.66;4984822;28;20042;-58
2021/05/25 10:28:55;;;;;;;3.25;0.90;;;;;;;15.20;48.10;97105.16;4982197;28;20057;-59
2021/05/25 10:31:37;;;;;;;6.15;1.15;;;;;;;14.56;48.03;97113.78;4977370;28;20042;-60
2021/05/25 10:34:11;;;;;;;3.22;0.70;;;;;;;14.68;49.23;97113.53;4977422;28;20590;-60
2021/05/25 10:36:54;;;;;;;4.32;0.77;;;;;;;14.75;47.71;97110.81;4985642;28;20038;-61
2021/05/25 10:39:31;;;;;;;7.03;1.00;;;;;;;14.42;48.59;97111.72;4980087;28;20049;-61
2021/05/25 10:42:22;;;;;;;3.60;0.68;;;;;;;14.37;45.43;97090.03;4983356;28;20042;-62
2021/05/25 10:45:09;;;;;;;4.93;0.93;;;;;;;14.79;47.02;97103.34;4979744;28;20503;-61
2021/05/25 10:47:38;;;;;;;3.65;0.90;;;;;;;15.00;45.31;97105.44;4964982;28;20046;-62
2021/05/25 10:52:55;;;;;;;3.67;1.17;;;;;;;15.05;45.17;97109.78;4975781;28;20069;-63
2021/05/25 10:55:32;;;;;;;3.58;0.70;;;;;;;14.64;42.92;97096.16;4975057;28;20054;-62
2021/05/25 10:57:59;;;;;;;5.50;1.30;;;;;;;14.85;42.61;97101.00;4983177;28;20392;-62
2021/05/25 11:00:36;;;;;;;3.72;0.82;;;;;;;15.00;41.92;97088.91;4977864;28;20104;-60
2021/05/25 11:03:17;;;;;;;1.88;0.60;;;;;;;15.34;41.22;97107.97;4983233;28;20048;-62
2021/05/25 11:05:50;;;;;;;27.58;14.43;;;;;;;15.07;40.05;97110.19;4993587;28;20078;-61
2021/05/25 11:08:17;;;;;;;5.32;1.30;;;;;;;14.36;40.37;97085.69;4972646;28;20066;-61
2021/05/25 11:10:47;;;;;;;3.55;0.90;;;;;;;14.21;41.21;97104.88;4980163;28;20043;-56
2021/05/25 11:16:01;;;;;;;2.78;0.95;;;;;;;13.02;46.13;97135.78;4988907;28;20049;-60
2021/05/25 11:18:37;;;;;;;7.28;1.50;;;;;;;12.62;47.21;97129.72;4978138;28;20046;-61
2021/05/25 11:23:43;;;;;;;7.20;3.78;;;;;;;13.11;47.42;97135.50;4963752;28;20042;-58
2021/05/25 11:26:09;;;;;;;4.40;1.17;;;;;;;13.48;46.02;97134.81;4958757;28;20121;-58
2021/05/25 11:29:12;;;;;;;6.00;1.30;;;;;;;13.63;45.14;97125.56;4964150;28;20138;-59
2021/05/25 11:31:39;;;;;;;3.75;0.82;;;;;;;13.82;45.59;97129.28;4961196;28;20129;-59
2021/05/25 11:34:05;;;;;;;5.55;1.05;;;;;;;14.33;43.87;97110.09;4957707;28;20041;-61
2021/05/25 11:36:30;;;;;;;3.45;0.82;;;;;;;14.19;44.03;97120.19;4975387;28;20137;-61
2021/05/25 11:38:56;;;;;;;5.20;0.80;;;;;;;14.00;44.96;97121.19;4981422;28;20106;-59
2021/05/25 11:41:22;;;;;;;2.70;0.60;;;;;;;13.89;45.04;97119.13;4977059;28;20324;-57
2021/05/25 11:43:47;;;;;;;4.65;1.13;;;;;;;14.45;44.87;97127.50;4980535;28;20391;-60
2021/05/25 11:46:12;;;;;;;4.85;0.73;;;;;;;14.81;43.13;97116.75;4973695;28;20141;-60
2021/05/25 11:48:38;;;;;;;3.65;0.60;;;;;;;14.97;42.56;97111.72;4982333;28;20042;-59
2021/05/25 11:51:10;;;;;;;5.47;1.38;;;;;;;14.75;42.27;97116.31;4986332;28;20038;-61
2021/05/25 11:53:38;;;;;;;4.88;0.60;;;;;;;14.96;40.57;97117.63;4974641;28;20148;-61